createdAt,value
2017-09-18T00:00:44.959Z,14.49
2017-09-18T00:01:55.319Z,14.59
2017-09-18T00:03:05.653Z,14.49
2017-09-18T00:04:15.975Z,14.59
2017-09-18T00:05:25.686Z,14.57
2017-09-18T00:06:36.020Z,14.51
2017-09-18T00:07:46.356Z,14.57
2017-09-18T00:08:56.687Z,14.56
2017-09-18T00:10:07.020Z,14.56
2017-09-18T00:11:17.379Z,14.61
2017-09-18T00:12:27.391Z,14.49
2017-09-18T00:13:37.757Z,14.57
2017-09-18T00:14:48.091Z,14.6
2017-09-18T00:15:58.438Z,14.66
2017-09-18T00:17:08.775Z,14.59
2017-09-18T00:18:19.347Z,14.59
2017-09-18T00:19:29.684Z,14.7
2017-09-18T00:20:40.013Z,14.52
2017-09-18T00:21:50.354Z,14.51
2017-09-18T00:23:00.697Z,14.57
2017-09-18T00:24:11.045Z,14.56
2017-09-18T00:25:21.372Z,14.56
2017-09-18T00:26:31.399Z,14.59
2017-09-18T00:27:41.756Z,14.59
2017-09-18T00:28:52.243Z,14.57
2017-09-18T00:30:02.589Z,14.61
2017-09-18T00:31:14.989Z,14.59
2017-09-18T00:32:25.007Z,14.48
2017-09-18T00:33:35.365Z,14.52
2017-09-18T00:34:45.702Z,14.49
2017-09-18T00:35:56.048Z,14.48
2017-09-18T00:37:06.410Z,14.53
2017-09-18T00:38:16.430Z,14.56
2017-09-18T00:39:26.768Z,14.46
2017-09-18T00:40:36.823Z,14.42
2017-09-18T00:41:47.181Z,14.42
2017-09-18T00:42:57.198Z,14.45
2017-09-18T00:44:07.541Z,14.44
2017-09-18T00:45:17.560Z,14.41
2017-09-18T00:46:27.578Z,14.38
2017-09-18T00:47:37.925Z,14.33
2017-09-18T00:48:47.678Z,14.39
2017-09-18T00:49:57.703Z,14.39
2017-09-18T00:51:08.036Z,14.42
2017-09-18T00:52:17.744Z,14.36
2017-09-18T00:53:28.080Z,14.41
2017-09-18T00:54:38.405Z,14.3
2017-09-18T00:55:48.752Z,14.3
2017-09-18T00:56:58.764Z,14.19
2017-09-18T00:58:08.788Z,14.16
2017-09-18T00:59:18.809Z,14.15
2017-09-18T01:00:30.068Z,14.15
2017-09-18T01:01:40.413Z,14.19
2017-09-18T01:02:50.765Z,14.08
2017-09-18T01:04:01.109Z,14.03
2017-09-18T01:05:11.466Z,13.97
2017-09-18T01:06:21.804Z,13.97
2017-09-18T01:07:32.149Z,13.9
2017-09-18T01:08:42.471Z,13.94
2017-09-18T01:09:52.481Z,13.91
2017-09-18T01:11:02.810Z,13.86
2017-09-18T01:12:12.837Z,13.78
2017-09-18T01:13:23.180Z,13.76
2017-09-18T01:14:33.509Z,13.73
2017-09-18T01:15:43.850Z,13.7
2017-09-18T01:16:56.008Z,13.65
2017-09-18T01:18:06.355Z,13.65
2017-09-18T01:19:16.695Z,13.68
2017-09-18T01:20:27.050Z,13.53
2017-09-18T01:21:37.387Z,13.66
2017-09-18T01:22:47.398Z,13.65
2017-09-18T01:23:57.096Z,13.53
2017-09-18T01:25:07.448Z,13.53
2017-09-18T01:26:18.012Z,13.48
2017-09-18T01:27:28.601Z,13.48
2017-09-18T01:28:38.946Z,13.45
2017-09-18T01:29:49.279Z,13.44
2017-09-18T01:30:59.606Z,13.44
2017-09-18T01:32:09.948Z,13.48
2017-09-18T01:33:19.984Z,13.44
2017-09-18T01:34:29.688Z,13.47
2017-09-18T01:35:40.047Z,13.48
2017-09-18T01:36:50.079Z,13.48
2017-09-18T01:38:00.421Z,13.5
2017-09-18T01:39:10.767Z,13.53
2017-09-18T01:40:20.764Z,13.45
2017-09-18T01:41:30.468Z,13.48
2017-09-18T01:42:40.813Z,13.42
2017-09-18T01:43:51.152Z,13.44
2017-09-18T01:45:01.178Z,13.53
2017-09-18T01:46:11.524Z,13.51
2017-09-18T01:47:21.548Z,13.55
2017-09-18T01:48:32.113Z,13.53
2017-09-18T01:49:42.454Z,13.54
2017-09-18T01:50:52.801Z,13.53
2017-09-18T01:52:03.137Z,13.47
2017-09-18T01:53:13.519Z,13.54
2017-09-18T01:54:23.858Z,13.54
2017-09-18T01:55:34.211Z,13.62
2017-09-18T01:56:44.536Z,13.47
2017-09-18T01:57:54.896Z,13.62
2017-09-18T01:59:05.237Z,13.54
2017-09-18T02:00:15.559Z,13.63
2017-09-18T02:01:25.895Z,13.58
2017-09-18T02:02:36.244Z,13.66
2017-09-18T02:03:46.604Z,13.54
2017-09-18T02:04:56.951Z,13.58
2017-09-18T02:06:07.285Z,13.6
2017-09-18T02:07:17.635Z,13.6
2017-09-18T02:08:27.986Z,13.62
2017-09-18T02:09:37.994Z,13.66
2017-09-18T02:10:48.341Z,13.58
2017-09-18T02:11:58.369Z,13.66
2017-09-18T02:13:08.704Z,13.65
2017-09-18T02:14:18.723Z,13.68
2017-09-18T02:15:29.091Z,13.68
2017-09-18T02:16:38.801Z,13.68
2017-09-18T02:17:49.132Z,13.57
2017-09-18T02:18:59.465Z,13.65
2017-09-18T02:20:09.815Z,13.63
2017-09-18T02:21:19.860Z,13.66
2017-09-18T02:22:32.704Z,13.69
2017-09-18T02:23:42.735Z,13.69
2017-09-18T02:24:53.072Z,13.76
2017-09-18T02:26:03.432Z,13.73
2017-09-18T02:27:13.774Z,13.78
2017-09-18T02:28:25.304Z,13.79
2017-09-18T02:29:35.329Z,13.73
2017-09-18T02:30:45.665Z,13.87
2017-09-18T02:31:56.011Z,13.76
2017-09-18T02:33:06.350Z,13.75
2017-09-18T02:34:16.058Z,13.87
2017-09-18T02:35:26.093Z,13.84
2017-09-18T02:36:36.424Z,13.78
2017-09-18T02:37:46.465Z,13.75
2017-09-18T02:38:56.502Z,13.76
2017-09-18T02:40:06.840Z,13.75
2017-09-18T02:41:17.176Z,13.76
2017-09-18T02:42:27.513Z,13.7
2017-09-18T02:43:37.539Z,13.62
2017-09-18T02:44:47.885Z,13.58
2017-09-18T02:45:58.256Z,13.53
2017-09-18T02:47:08.591Z,13.53
2017-09-18T02:48:18.958Z,13.47
2017-09-18T02:49:29.298Z,13.36
2017-09-18T02:50:39.632Z,13.35
2017-09-18T02:51:49.973Z,13.29
2017-09-18T02:53:00.323Z,13.31
2017-09-18T02:54:15.203Z,13.28
2017-09-18T02:55:25.542Z,13.2
2017-09-18T02:56:35.899Z,13.13
2017-09-18T02:57:45.915Z,13.13
2017-09-18T02:58:56.254Z,13.17
2017-09-18T03:00:06.646Z,13.09
2017-09-18T03:01:16.662Z,13.1
2017-09-18T03:33:27.509Z,9.24
2017-09-18T03:34:37.533Z,9.29
2017-09-18T03:35:47.864Z,9.17
2017-09-18T03:36:57.874Z,9.26
2017-09-18T03:38:08.212Z,9.26
2017-09-18T03:39:18.577Z,9.34
2017-09-18T03:40:28.915Z,9.5
2017-09-18T03:41:39.263Z,9.57
2017-09-18T03:42:49.623Z,9.6
2017-09-18T03:43:59.974Z,9.81
2017-09-18T03:45:10.034Z,9.89
2017-09-18T03:46:20.360Z,9.99
2017-09-18T03:47:30.692Z,10.1
2017-09-18T03:48:41.031Z,10.29
2017-09-18T03:49:51.361Z,10.35
2017-09-18T03:51:01.386Z,10.49
2017-09-18T03:52:11.420Z,10.66
2017-09-18T03:53:21.790Z,10.79
2017-09-18T03:54:32.123Z,10.84
2017-09-18T03:55:42.137Z,10.88
2017-09-18T03:56:52.561Z,10.97
2017-09-18T03:58:02.887Z,10.98
2017-09-18T03:59:12.909Z,11.03
2017-09-18T04:00:22.918Z,11.1
2017-09-18T04:01:33.262Z,11.16
2017-09-18T04:02:43.640Z,11.23
2017-09-18T04:03:53.652Z,11.27
2017-09-18T04:05:03.664Z,11.33
2017-09-18T04:06:13.665Z,11.42
2017-09-18T04:07:23.997Z,11.42
2017-09-18T04:08:34.391Z,11.45
2017-09-18T04:09:44.093Z,11.57
2017-09-18T04:10:54.433Z,11.46
2017-09-18T04:12:04.793Z,11.53
2017-09-18T04:13:14.987Z,11.61
2017-09-18T04:14:25.020Z,11.59
2017-09-18T04:15:35.363Z,11.57
2017-09-18T04:16:45.372Z,11.63
2017-09-18T04:17:55.704Z,11.59
2017-09-18T04:19:05.726Z,11.64
2017-09-18T04:20:16.063Z,11.66
2017-09-18T04:21:26.394Z,11.53
2017-09-18T04:22:36.436Z,11.59
2017-09-18T04:23:46.452Z,11.68
2017-09-18T04:24:56.803Z,11.57
2017-09-18T04:26:06.824Z,11.67
2017-09-18T04:27:17.231Z,11.64
2017-09-18T04:28:27.556Z,11.7
2017-09-18T04:29:37.892Z,11.67
2017-09-18T04:30:47.961Z,11.66
2017-09-18T04:31:57.988Z,11.67
2017-09-18T04:33:08.339Z,11.66
2017-09-18T04:34:18.037Z,11.73
2017-09-18T04:35:28.390Z,11.78
2017-09-18T04:36:38.401Z,11.71
2017-09-18T04:37:48.729Z,11.76
2017-09-18T04:38:58.418Z,11.85
2017-09-18T04:40:08.764Z,11.81
2017-09-18T04:41:19.106Z,11.76
2017-09-18T04:42:29.120Z,11.94
2017-09-18T04:43:39.507Z,11.88
2017-09-18T04:44:49.527Z,11.88
2017-09-18T04:45:59.855Z,11.94
2017-09-18T04:47:10.197Z,11.89
2017-09-18T04:48:20.790Z,11.98
2017-09-18T04:49:31.149Z,11.97
2017-09-18T04:50:41.477Z,11.98
2017-09-18T04:51:51.488Z,12.04
2017-09-18T04:53:01.866Z,12.11
2017-09-18T04:54:12.206Z,12.13
2017-09-18T04:55:22.220Z,12.13
2017-09-18T04:56:32.563Z,12.2
2017-09-18T04:57:42.910Z,12.25
2017-09-18T04:58:52.939Z,12.25
2017-09-18T05:00:03.266Z,12.33
2017-09-18T05:01:13.288Z,12.31
2017-09-18T05:02:23.325Z,12.41
2017-09-18T05:03:33.669Z,12.43
2017-09-18T05:04:43.688Z,12.44
2017-09-18T05:05:54.044Z,12.47
2017-09-18T05:07:04.106Z,12.51
2017-09-18T05:08:14.458Z,12.43
2017-09-18T05:09:24.479Z,12.44
2017-09-18T05:10:34.831Z,12.48
2017-09-18T05:11:45.398Z,12.47
2017-09-18T05:12:55.726Z,12.58
2017-09-18T05:14:06.058Z,12.58
2017-09-18T05:15:16.405Z,12.55
2017-09-18T05:16:26.438Z,12.58
2017-09-18T05:17:36.768Z,12.61
2017-09-18T05:18:46.784Z,12.62
2017-09-18T05:19:56.806Z,12.56
2017-09-18T05:21:06.838Z,12.78
2017-09-18T05:22:16.536Z,12.78
2017-09-18T05:23:26.869Z,12.86
2017-09-18T05:24:38.798Z,12.89
2017-09-18T05:25:49.136Z,12.84
2017-09-18T05:26:59.458Z,12.91
2017-09-18T05:28:09.794Z,13.03
2017-09-18T05:29:19.818Z,13.09
2017-09-18T05:30:30.183Z,13.1
2017-09-18T05:31:40.199Z,13.1
2017-09-18T05:32:50.535Z,13.19
2017-09-18T05:34:00.238Z,13.21
2017-09-18T05:35:10.574Z,13.36
2017-09-18T05:36:20.968Z,13.48
2017-09-18T05:37:31.517Z,13.47
2017-09-18T05:38:41.852Z,13.53
2017-09-18T05:39:51.881Z,13.54
2017-09-18T05:41:01.932Z,13.58
2017-09-18T05:42:12.265Z,13.68
2017-09-18T05:43:22.283Z,13.73
2017-09-18T05:44:32.684Z,13.72
2017-09-18T05:45:43.017Z,13.75
2017-09-18T05:46:53.366Z,13.83
2017-09-18T05:48:03.718Z,13.94
2017-09-18T05:49:14.068Z,13.87
2017-09-18T05:50:24.086Z,13.99
2017-09-18T05:51:34.429Z,14.01
2017-09-18T05:52:44.455Z,14.16
2017-09-18T05:53:54.800Z,14.09
2017-09-18T05:55:04.829Z,14.21
2017-09-18T05:56:15.175Z,14.28
2017-09-18T05:57:25.511Z,14.33
2017-09-18T05:58:35.229Z,14.39
2017-09-18T05:59:45.626Z,14.51
2017-09-18T06:00:55.982Z,14.48
2017-09-18T06:02:06.339Z,14.6
2017-09-18T06:03:16.680Z,14.7
2017-09-18T06:04:27.033Z,14.66
2017-09-18T06:05:36.737Z,14.7
2017-09-18T06:06:47.076Z,14.8
2017-09-18T06:07:57.098Z,14.77
2017-09-18T06:09:07.128Z,14.86
2017-09-18T06:10:17.157Z,14.86
2017-09-18T06:11:27.176Z,15.04
2017-09-18T06:12:37.536Z,15.12
2017-09-18T06:13:47.880Z,15.08
2017-09-18T06:14:58.256Z,15.26
2017-09-18T06:16:08.592Z,15.31
2017-09-18T06:17:18.955Z,15.34
2017-09-18T06:18:28.974Z,15.37
2017-09-18T06:19:39.328Z,15.45
2017-09-18T06:20:49.344Z,15.53
2017-09-18T06:21:59.690Z,15.45
2017-09-18T06:23:09.722Z,15.49
2017-09-18T06:24:19.749Z,15.58
2017-09-18T06:25:30.113Z,15.6
2017-09-18T06:26:40.452Z,15.63
2017-09-18T06:27:50.789Z,15.63
2017-09-18T06:29:01.125Z,15.62
2017-09-18T06:30:11.170Z,15.74
2017-09-18T06:31:21.195Z,15.75
2017-09-18T06:32:31.555Z,15.84
2017-09-18T06:33:41.593Z,15.84
2017-09-18T06:34:51.955Z,15.84
2017-09-18T06:36:01.670Z,15.98
2017-09-18T06:37:11.992Z,15.98
2017-09-18T06:38:22.354Z,16.11
2017-09-18T06:39:32.676Z,16.17
2017-09-18T06:40:42.693Z,16.21
2017-09-18T06:41:53.059Z,16.37
2017-09-18T06:43:03.082Z,16.42
2017-09-18T06:44:13.418Z,16.44
2017-09-18T06:45:23.771Z,16.39
2017-09-18T06:46:34.107Z,16.4
2017-09-18T06:47:44.124Z,16.48
2017-09-18T06:48:55.789Z,16.48
2017-09-18T06:50:05.564Z,16.42
2017-09-18T06:51:15.593Z,16.42
2017-09-18T06:52:26.034Z,16.48
2017-09-18T06:53:36.377Z,16.48
2017-09-18T06:54:46.433Z,16.47
2017-09-18T06:55:56.777Z,16.55
2017-09-18T06:57:06.818Z,16.52
2017-09-18T06:58:18.765Z,16.59
2017-09-18T06:59:29.124Z,16.65
2017-09-18T07:00:39.478Z,16.7
2017-09-18T07:01:49.869Z,16.66
2017-09-18T07:03:00.223Z,16.7
2017-09-18T07:04:10.564Z,16.73
2017-09-18T07:05:20.596Z,16.88
2017-09-18T07:06:30.937Z,16.84
2017-09-18T07:07:41.278Z,16.88
2017-09-18T07:08:51.633Z,16.97
2017-09-18T07:10:01.995Z,17
2017-09-18T07:11:12.360Z,17.09
2017-09-18T07:12:22.697Z,17.15
2017-09-18T07:13:32.767Z,17.22
2017-09-18T07:14:42.465Z,17.28
2017-09-18T07:15:52.487Z,17.36
2017-09-18T07:17:04.828Z,17.32
2017-09-18T07:18:14.852Z,17.42
2017-09-18T07:19:25.178Z,17.45
2017-09-18T07:20:35.560Z,17.49
2017-09-18T07:21:45.926Z,17.52
2017-09-18T07:22:56.261Z,17.57
2017-09-18T07:24:05.663Z,17.66
2017-09-18T07:25:16.075Z,17.79
2017-09-18T07:26:26.421Z,17.79
2017-09-18T07:27:36.764Z,17.86
2017-09-18T07:28:46.781Z,17.9
2017-09-18T07:29:57.118Z,18.16
2017-09-18T07:31:07.470Z,18.14
2017-09-18T07:32:17.827Z,18.23
2017-09-18T07:33:28.177Z,18.27
2017-09-18T07:34:38.519Z,18.34
2017-09-18T07:35:48.872Z,18.39
2017-09-18T07:36:58.903Z,18.54
2017-09-18T07:38:08.607Z,18.45
2017-09-18T07:39:18.965Z,18.66
2017-09-18T07:40:29.001Z,18.65
2017-09-18T07:41:39.371Z,18.81
2017-09-18T07:42:49.713Z,18.78
2017-09-18T07:43:59.738Z,18.87
2017-09-18T07:45:10.079Z,18.97
2017-09-18T07:46:20.110Z,19.06
2017-09-18T07:47:30.461Z,19.27
2017-09-18T07:48:40.867Z,19.25
2017-09-18T07:49:50.887Z,19.37
2017-09-18T07:51:01.236Z,19.46
2017-09-18T07:52:11.269Z,19.46
2017-09-18T07:53:21.628Z,19.53
2017-09-18T07:54:31.974Z,19.6
2017-09-18T07:55:42.012Z,19.71
2017-09-18T07:56:52.046Z,19.8
2017-09-18T07:58:02.095Z,19.83
2017-09-18T07:59:12.428Z,19.92
2017-09-18T08:00:22.201Z,20
2017-09-18T08:01:32.561Z,20.07
2017-09-18T08:02:42.897Z,20.02
2017-09-18T08:03:53.263Z,20.16
2017-09-18T08:05:03.615Z,20.12
2017-09-18T08:06:13.996Z,20.23
2017-09-18T08:07:24.346Z,20.27
2017-09-18T08:08:34.365Z,20.3
2017-09-18T08:09:44.700Z,20.4
2017-09-18T08:10:55.044Z,20.37
2017-09-18T08:12:05.381Z,20.35
2017-09-18T08:13:15.763Z,20.37
2017-09-18T08:14:25.800Z,20.4
2017-09-18T08:15:36.144Z,20.48
2017-09-18T08:16:45.994Z,20.49
2017-09-18T08:17:55.710Z,20.42
2017-09-18T08:19:05.736Z,20.54
2017-09-18T08:20:16.101Z,20.54
2017-09-18T08:21:25.826Z,20.67
2017-09-18T08:22:36.236Z,20.51
2017-09-18T08:23:46.271Z,20.61
2017-09-18T08:24:56.304Z,20.63
2017-09-18T08:26:06.650Z,20.42
2017-09-18T08:27:17.005Z,20.64
2017-09-18T08:28:27.358Z,20.67
2017-09-18T08:29:39.387Z,20.79
2017-09-18T08:30:49.414Z,20.97
2017-09-18T08:31:59.438Z,21.08
2017-09-18T08:33:09.415Z,21.16
2017-09-18T08:34:19.820Z,21.36
2017-09-18T08:35:30.214Z,21.41
2017-09-18T08:36:40.579Z,21.49
2017-09-18T08:37:52.074Z,21.53
2017-09-18T08:39:04.713Z,21.64
2017-09-18T08:40:16.988Z,21.73
2017-09-18T08:41:27.388Z,21.85
2017-09-18T08:42:37.793Z,21.89
2017-09-18T08:43:48.161Z,21.94
2017-09-18T08:44:57.892Z,22.09
2017-09-18T08:46:08.250Z,21.96
2017-09-18T08:47:18.600Z,22.07
2017-09-18T08:48:28.938Z,21.94
2017-09-18T08:49:39.295Z,21.86
2017-09-18T08:50:49.668Z,22.05
2017-09-18T08:52:00.030Z,22.26
2017-09-18T08:53:10.397Z,22.33
2017-09-18T08:54:20.746Z,22.44
2017-09-18T08:55:31.111Z,22.45
2017-09-18T08:56:41.455Z,22.73
2017-09-18T08:57:51.808Z,22.88
2017-09-18T08:59:01.841Z,23.14
2017-09-18T09:00:14.740Z,23.24
2017-09-18T09:01:25.098Z,23.59
2017-09-18T09:02:35.461Z,23.67
2017-09-18T09:03:45.834Z,24.03
2017-09-18T09:04:56.182Z,23.99
2017-09-18T09:06:06.552Z,23.74
2017-09-18T09:07:16.596Z,23.5
2017-09-18T09:08:26.945Z,23.25
2017-09-18T09:09:37.347Z,22.94
2017-09-18T09:10:47.694Z,23.03
2017-09-18T09:11:58.053Z,23.19
2017-09-18T09:13:08.097Z,23.24
2017-09-18T09:14:18.457Z,23.24
2017-09-18T09:15:28.869Z,23.18
2017-09-18T09:16:39.232Z,23.18
2017-09-18T09:17:49.583Z,23.09
2017-09-18T09:18:59.617Z,23.01
2017-09-18T09:20:09.978Z,22.86
2017-09-18T09:21:20.381Z,22.75
2017-09-18T09:22:30.426Z,22.61
2017-09-18T09:23:40.763Z,22.63
2017-09-18T09:24:51.122Z,22.67
2017-09-18T09:26:04.090Z,22.64
2017-09-18T09:27:14.838Z,22.73
2017-09-18T09:28:25.201Z,22.97
2017-09-18T09:29:35.243Z,23.1
2017-09-18T09:30:45.600Z,23.06
2017-09-18T09:31:55.943Z,22.96
2017-09-18T09:33:06.355Z,23.04
2017-09-18T09:34:16.728Z,23
2017-09-18T09:35:26.784Z,23.16
2017-09-18T09:36:37.147Z,23.28
2017-09-18T09:37:47.272Z,23.25
2017-09-18T09:38:57.687Z,23.59
2017-09-18T09:40:07.732Z,23.62
2017-09-18T09:41:17.771Z,23.57
2017-09-18T09:42:27.805Z,23.47
2017-09-18T09:43:38.158Z,23.62
2017-09-18T09:44:48.583Z,23.57
2017-09-18T09:45:58.927Z,23.57
2017-09-18T09:47:08.637Z,23.62
2017-09-18T09:48:18.681Z,23.75
2017-09-18T09:49:29.030Z,23.85
2017-09-18T09:50:39.432Z,23.94
2017-09-18T09:51:49.782Z,24.08
2017-09-18T09:53:00.136Z,24.32
2017-09-18T09:54:10.502Z,24.42
2017-09-18T09:55:20.857Z,24.52
2017-09-18T09:56:30.980Z,24.54
2017-09-18T09:57:42.783Z,24.34
2017-09-18T09:58:53.126Z,24.42
2017-09-18T10:00:03.531Z,24.3
2017-09-18T10:01:13.890Z,24.26
2017-09-18T10:02:24.237Z,24.34
2017-09-18T10:03:34.266Z,24.44
2017-09-18T10:04:44.614Z,24.45
2017-09-18T10:05:54.960Z,24.12
2017-09-18T10:07:05.003Z,24.15
2017-09-18T10:08:15.037Z,24.32
2017-09-18T10:09:24.769Z,24.42
2017-09-18T10:10:34.815Z,24.44
2017-09-18T10:11:45.172Z,24.56
2017-09-18T10:12:55.519Z,24.51
2017-09-18T10:14:08.125Z,24.56
2017-09-18T10:15:18.476Z,24.55
2017-09-18T10:16:28.855Z,24.66
2017-09-18T10:17:38.898Z,24.75
2017-09-18T10:18:48.626Z,24.69
2017-09-18T10:19:59.077Z,24.75
2017-09-18T10:21:09.440Z,24.78
2017-09-18T10:22:19.804Z,24.82
2017-09-18T10:23:30.153Z,24.83
2017-09-18T10:24:40.214Z,24.8
2017-09-18T10:25:50.589Z,24.83
2017-09-18T10:27:00.965Z,24.77
2017-09-18T10:28:15.202Z,24.8
2017-09-18T10:29:25.255Z,24.85
2017-09-18T10:30:35.618Z,24.89
2017-09-18T10:31:45.982Z,25.01
2017-09-18T10:32:56.029Z,25.04
2017-09-18T10:34:06.387Z,25.12
2017-09-18T10:35:16.823Z,25.17
2017-09-18T10:36:26.859Z,25.11
2017-09-18T10:37:36.915Z,25.08
2017-09-18T10:38:47.273Z,24.96
2017-09-18T10:39:57.636Z,24.87
2017-09-18T10:41:07.998Z,24.86
2017-09-18T10:42:18.030Z,24.77
2017-09-18T10:43:28.390Z,24.8
2017-09-18T10:44:38.752Z,24.75
2017-09-18T10:45:49.133Z,24.85
2017-09-18T10:46:59.545Z,24.92
2017-09-18T10:48:09.597Z,24.92
2017-09-18T10:49:19.949Z,24.87
2017-09-18T10:50:30.315Z,24.97
2017-09-18T10:51:40.682Z,25
2017-09-18T10:52:51.072Z,25.05
2017-09-18T10:54:01.471Z,25.15
2017-09-18T10:55:11.522Z,25.23
2017-09-18T10:56:21.871Z,25.32
2017-09-18T10:57:31.904Z,25.44
2017-09-18T10:58:41.675Z,25.49
2017-09-18T10:59:52.047Z,25.56
2017-09-18T11:01:02.391Z,25.6
2017-09-18T11:02:12.763Z,25.6
2017-09-18T11:03:23.105Z,25.54
2017-09-18T11:04:33.198Z,25.48
2017-09-18T11:05:43.259Z,25.34
2017-09-18T11:06:53.627Z,25.33
2017-09-18T11:08:03.981Z,25.3
2017-09-18T11:09:14.343Z,25.27
2017-09-18T11:10:24.700Z,25.27
2017-09-18T11:11:35.053Z,25.32
2017-09-18T11:12:45.107Z,25.37
2017-09-18T11:13:55.473Z,25.32
2017-09-18T11:23:25.718Z,25.59
2017-09-18T11:24:35.771Z,25.7
2017-09-18T11:25:45.486Z,25.74
2017-09-18T11:26:56.048Z,25.94
2017-09-18T11:28:06.075Z,25.99
2017-09-18T11:29:16.436Z,26.19
2017-09-18T11:30:26.501Z,26.23
2017-09-18T11:31:36.786Z,26.37
2017-09-18T11:32:47.161Z,26.45
2017-09-18T11:33:57.541Z,26.53
2017-09-18T11:35:07.939Z,26.69
2017-09-18T11:36:18.300Z,26.76
2017-09-18T11:37:28.646Z,26.86
2017-09-18T11:38:39.007Z,27.05
2017-09-18T11:39:49.383Z,27.04
2017-09-18T11:40:59.483Z,27.13
2017-09-18T11:42:09.841Z,27.13
2017-09-18T11:43:20.200Z,27.23
2017-09-18T11:44:30.560Z,27.3
2017-09-18T11:45:40.899Z,27.36
2017-09-18T11:46:51.260Z,27.27
2017-09-18T11:48:01.636Z,27.08
2017-09-18T11:49:12.038Z,26.96
2017-09-18T11:50:22.399Z,26.74
2017-09-18T11:51:32.752Z,26.67
2017-09-18T11:52:43.165Z,26.45
2017-09-18T11:53:53.521Z,26.37
2017-09-18T11:55:03.880Z,26.44
2017-09-18T11:56:14.234Z,26.34
2017-09-18T11:57:24.584Z,26.32
2017-09-18T11:58:34.614Z,26.39
2017-09-18T11:59:44.653Z,26.2
2017-09-18T12:00:55.005Z,26.2
2017-09-18T12:02:05.371Z,26.19
2017-09-18T12:03:15.085Z,26.19
2017-09-18T12:04:25.489Z,26.06
2017-09-18T12:05:35.527Z,25.99
2017-09-18T12:06:45.867Z,25.91
2017-09-18T12:07:56.218Z,25.84
2017-09-18T12:09:06.576Z,25.85
2017-09-18T12:10:16.960Z,25.97
2017-09-18T12:11:27.321Z,26.32
2017-09-18T12:12:37.705Z,26.44
2017-09-18T12:13:48.071Z,26.67
2017-09-18T12:14:58.458Z,26.72
2017-09-18T12:16:11.350Z,26.86
2017-09-18T12:17:21.699Z,26.94
2017-09-18T12:18:32.078Z,27.26
2017-09-18T12:19:42.120Z,27.41
2017-09-18T12:20:52.491Z,27.52
2017-09-18T12:22:02.904Z,27.11
2017-09-18T12:23:12.959Z,27.04
2017-09-18T12:24:23.008Z,26.99
2017-09-18T12:25:33.370Z,27.09
2017-09-18T12:26:43.105Z,27.09
2017-09-18T12:27:53.436Z,27.09
2017-09-18T12:29:03.803Z,27.15
2017-09-18T12:30:14.170Z,27.18
2017-09-18T12:31:24.528Z,27.3
2017-09-18T12:32:34.912Z,27.36
2017-09-18T12:33:45.282Z,27.49
2017-09-18T12:34:55.654Z,27.61
2017-09-18T12:36:05.687Z,27.65
2017-09-18T12:37:16.064Z,27.66
2017-09-18T12:38:26.092Z,27.62
2017-09-18T12:39:36.519Z,27.18
2017-09-18T12:40:46.898Z,27.27
2017-09-18T12:41:57.258Z,27.37
2017-09-18T12:43:06.985Z,27.45
2017-09-18T12:44:17.007Z,27.61
2017-09-18T12:45:27.046Z,27.59
2017-09-18T12:46:37.080Z,27.43
2017-09-18T12:47:47.437Z,27.62
2017-09-18T12:48:57.800Z,27.49
2017-09-18T12:50:07.851Z,27.45
2017-09-18T12:51:18.410Z,27.57
2017-09-18T12:52:28.755Z,27.57
2017-09-18T12:53:39.114Z,27.71
2017-09-18T12:54:49.487Z,27.9
2017-09-18T12:55:59.535Z,27.52
2017-09-18T12:57:09.883Z,27.06
2017-09-18T12:58:20.246Z,27.08
2017-09-18T12:59:30.884Z,27.26
2017-09-18T13:00:41.254Z,26.97
2017-09-18T13:01:51.632Z,26.63
2017-09-18T13:03:01.997Z,26.42
2017-09-18T13:04:12.374Z,26.26
2017-09-18T13:05:22.471Z,26.52
2017-09-18T13:06:32.828Z,26.39
2017-09-18T13:07:42.861Z,26.01
2017-09-18T13:08:52.909Z,25.74
2017-09-18T13:10:03.273Z,25.59
2017-09-18T13:11:14.251Z,25.39
2017-09-18T13:12:31.118Z,25.11
2017-09-18T13:13:44.321Z,25
2017-09-18T13:18:09.652Z,25.64
2017-09-18T13:19:20.016Z,25.76
2017-09-18T13:20:30.372Z,25.23
2017-09-18T13:21:43.341Z,24.85
2017-09-18T13:22:57.816Z,24.61
2017-09-18T13:24:08.182Z,24.3
2017-09-18T13:25:18.550Z,24.14
2017-09-18T13:26:28.786Z,24.22
2017-09-18T13:27:41.495Z,24.74
2017-09-18T13:28:51.859Z,24.67
2017-09-18T13:30:02.244Z,24.36
2017-09-18T13:31:12.288Z,24.26
2017-09-18T13:32:22.329Z,24.19
2017-09-18T13:33:32.346Z,24.3
2017-09-18T13:34:42.707Z,24.29
2017-09-18T13:35:53.061Z,24.27
2017-09-18T13:37:02.768Z,24.04
2017-09-18T13:38:13.133Z,23.93
2017-09-18T13:39:22.863Z,23.87
2017-09-18T13:40:33.977Z,23.78
2017-09-18T13:41:44.354Z,23.57
2017-09-18T13:42:54.080Z,23.55
2017-09-18T13:44:04.436Z,23.37
2017-09-18T13:45:14.783Z,23.24
2017-09-18T13:46:24.903Z,23.16
2017-09-18T13:47:34.941Z,23.07
2017-09-18T13:48:45.005Z,23.03
2017-09-18T13:49:55.037Z,23
2017-09-18T13:51:05.400Z,23.03
2017-09-18T13:52:15.751Z,23.01
2017-09-18T13:53:26.111Z,23.14
2017-09-18T13:54:36.528Z,23.25
2017-09-18T13:55:46.886Z,23.38
2017-09-18T13:56:57.611Z,23.52
2017-09-18T13:58:07.701Z,23.62
2017-09-18T13:59:18.088Z,23.62
2017-09-18T14:00:28.459Z,23.72
2017-09-18T14:01:39.757Z,23.78
2017-09-18T14:02:49.789Z,23.84
2017-09-18T14:04:00.178Z,23.92
2017-09-18T14:05:10.526Z,24.07
2017-09-18T14:06:20.894Z,24
2017-09-18T14:07:30.932Z,24.07
2017-09-18T14:14:25.664Z,24.27
2017-09-18T14:15:36.065Z,24.34
2017-09-18T14:16:46.445Z,24.27
2017-09-18T14:17:56.522Z,24.27
2017-09-18T14:19:06.883Z,24.22
2017-09-18T14:20:17.246Z,24.19
2017-09-18T14:21:28.340Z,24.17
2017-09-18T14:22:38.392Z,24.15
2017-09-18T14:23:48.731Z,24.19
2017-09-18T14:24:59.083Z,24.19
2017-09-18T14:26:09.473Z,24.12
2017-09-18T14:27:19.568Z,24.14
2017-09-18T14:28:29.925Z,24.18
2017-09-18T14:29:40.289Z,24.15
2017-09-18T14:30:50.640Z,24.17
2017-09-18T14:32:00.686Z,24.15
2017-09-18T14:33:11.116Z,24.11
2017-09-18T14:34:21.469Z,24.11
2017-09-18T14:35:31.850Z,24.08
2017-09-18T14:36:41.910Z,24
2017-09-18T14:37:52.269Z,23.96
2017-09-18T14:39:02.380Z,23.79
2017-09-18T14:40:12.761Z,23.75
2017-09-18T14:41:23.129Z,23.7
2017-09-18T14:42:33.479Z,23.7
2017-09-18T14:43:43.850Z,23.74
2017-09-18T14:44:54.257Z,23.64
2017-09-18T14:46:04.616Z,23.67
2017-09-18T14:47:14.648Z,23.62
2017-09-18T14:48:25.001Z,23.56
2017-09-18T14:49:35.373Z,23.56
2017-09-18T14:50:45.478Z,23.45
2017-09-18T14:51:55.829Z,23.32
2017-09-18T14:53:06.195Z,23.32
2017-09-18T14:54:16.549Z,23.15
2017-09-18T14:55:26.926Z,23.06
2017-09-18T14:56:37.281Z,22.91
2017-09-18T14:57:47.332Z,22.88
2017-09-18T14:58:57.715Z,22.85
2017-09-18T15:00:07.448Z,22.75
2017-09-18T15:01:17.810Z,22.79
2017-09-18T15:02:28.238Z,22.63
2017-09-18T15:03:38.598Z,22.67
2017-09-18T15:04:48.956Z,22.61
2017-09-18T15:05:59.008Z,22.6
2017-09-18T15:07:09.358Z,22.59
2017-09-18T15:08:19.782Z,22.51
2017-09-18T15:09:30.161Z,22.49
2017-09-18T15:10:39.927Z,22.46
2017-09-18T15:11:49.957Z,22.45
2017-09-18T15:13:00.341Z,22.31
2017-09-18T15:14:10.744Z,22.3
2017-09-18T15:15:21.104Z,22.38
2017-09-18T15:16:30.817Z,22.33
2017-09-18T15:17:41.193Z,22.18
2017-09-18T15:18:51.554Z,22.24
2017-09-18T15:20:01.967Z,22.14
2017-09-18T15:21:12.348Z,22.26
2017-09-18T15:22:22.727Z,22.24
2017-09-18T15:23:32.759Z,22.27
2017-09-18T15:24:43.126Z,22.18
2017-09-18T15:25:53.537Z,22.23
2017-09-18T15:27:03.545Z,22.14
2017-09-18T15:28:13.897Z,22.14
2017-09-18T15:29:23.950Z,22.16
2017-09-18T15:30:33.975Z,22.09
2017-09-18T15:31:44.344Z,22.11
2017-09-18T15:32:54.711Z,22.09
2017-09-18T15:34:05.078Z,22.08
2017-09-18T15:35:15.452Z,22.04
2017-09-18T15:36:25.831Z,22.04
2017-09-18T15:37:36.244Z,21.97
2017-09-18T15:38:46.606Z,22
2017-09-18T15:39:56.953Z,22.04
2017-09-18T15:41:07.314Z,21.99
2017-09-18T15:42:17.349Z,21.97
2017-09-18T15:43:27.757Z,22.05
2017-09-18T15:44:38.121Z,21.96
2017-09-18T15:45:48.478Z,22.14
2017-09-18T15:46:58.883Z,22.16
2017-09-18T15:48:09.239Z,22.22
2017-09-18T15:49:19.341Z,22.23
2017-09-18T15:50:29.748Z,22.33
2017-09-18T15:51:40.156Z,22.46
2017-09-18T15:52:50.206Z,22.38
2017-09-18T15:54:00.584Z,22.45
2017-09-18T15:55:10.691Z,22.34
2017-09-18T15:56:20.740Z,22.44
2017-09-18T15:57:31.100Z,22.41